Time;durP1;ratioP1;P1;durP2;ratioP2;P2;SDS_P1;SDS_P2;PMS_P1;PMS_P2;Temp;Humidity;BMP_temperature;BMP_pressure;BME280_temperature;BME280_humidity;BME280_pressure;Samples;Min_cycle;Max_cycle;Signal;HPM_P1;HPM_P2
2024/01/05 00:02:03;;;;;;;2.42;1.35;;;;;;;10.36;74.66;97795.06;5051744;28;20230;-57
2024/01/05 00:04:28;;;;;;;1.08;1.08;;;;;;;10.55;73.89;97809.97;5051756;28;20231;-58
2024/01/05 00:06:54;;;;;;;1.65;1.27;;;;;;;10.59;73.49;97830.31;5051554;28;20205;-57
2024/01/05 00:09:19;;;;;;;1.42;1.23;;;;;;;10.28;74.51;97781.09;5051665;28;20173;-58
2024/01/05 00:11:45;;;;;;;1.70;1.00;;;;;;;10.42;75.86;97823.03;5051556;28;20177;-58
2024/01/05 00:14:10;;;;;;;1.08;0.80;;;;;;;10.21;73.89;97785.09;5051586;28;20209;-57
2024/01/05 00:16:35;;;;;;;1.67;1.00;;;;;;;10.04;72.50;97759.72;5051503;28;20251;-57
2024/01/05 00:19:01;;;;;;;1.10;1.10;;;;;;;10.16;71.98;97792.38;5051157;28;20177;-57
2024/01/05 00:21:27;;;;;;;1.63;1.05;;;;;;;10.45;72.49;97845.28;5051686;28;20220;-57
2024/01/05 00:23:55;;;;;;;1.20;1.20;;;;;;;10.12;72.51;97790.97;5050819;28;20268;-57
2024/01/05 00:26:21;;;;;;;1.13;0.90;;;;;;;10.28;72.00;97825.03;5051208;28;20193;-57
2024/01/05 00:28:47;;;;;;;1.17;1.08;;;;;;;9.81;70.72;97734.78;5051382;28;20522;-56
2024/01/05 00:31:14;;;;;;;1.65;1.08;;;;;;;10.01;71.55;97775.41;5051360;28;20170;-56
2024/01/05 00:33:40;;;;;;;1.15;1.08;;;;;;;10.37;73.95;97847.59;5051261;28;20235;-57
2024/01/05 00:36:07;;;;;;;1.15;1.15;;;;;;;10.13;74.37;97813.28;5051270;28;20676;-57
2024/01/05 00:38:32;;;;;;;2.05;0.98;;;;;;;10.07;75.79;97824.09;5051198;28;20182;-56
2024/01/05 00:40:58;;;;;;;1.00;1.00;;;;;;;10.13;76.10;97864.97;5051265;28;20548;-57
2024/01/05 00:43:23;;;;;;;1.25;1.15;;;;;;;9.89;76.50;97843.53;5051198;28;20270;-57
2024/01/05 00:45:49;;;;;;;1.48;1.00;;;;;;;9.73;76.71;97815.44;5051129;28;20292;-56
2024/01/05 00:48:14;;;;;;;1.77;1.05;;;;;;;9.55;75.60;97777.22;5051114;28;20209;-57
2024/01/05 00:50:40;;;;;;;1.00;0.98;;;;;;;9.76;74.41;97809.22;5051135;28;20180;-56
2024/01/05 00:53:05;;;;;;;1.63;1.08;;;;;;;10.08;75.54;97852.41;5051139;28;20185;-57
2024/01/05 00:55:30;;;;;;;1.10;1.10;;;;;;;9.53;75.42;97755.88;5051073;28;20174;-56
2024/01/05 00:57:56;;;;;;;0.90;0.90;;;;;;;9.67;75.17;97794.38;5051064;28;20632;-56
2024/01/05 01:00:21;;;;;;;1.02;0.93;;;;;;;9.99;74.94;97841.91;5050964;28;20209;-57
2024/01/05 01:02:47;;;;;;;2.38;1.38;;;;;;;9.93;74.60;97845.75;5050758;28;20205;-56
2024/01/05 01:05:12;;;;;;;1.00;1.00;;;;;;;9.66;75.95;97816.00;5050971;28;20232;-57
2024/01/05 01:07:39;;;;;;;2.10;2.00;;;;;;;9.57;75.80;97803.78;5048186;28;20279;-57
2024/01/05 01:10:05;;;;;;;2.17;1.90;;;;;;;9.29;76.35;97762.84;5028481;28;20206;-56
2024/01/05 01:12:30;;;;;;;1.77;1.67;;;;;;;9.22;77.75;97751.34;5028507;28;20712;-56
2024/01/05 01:14:56;;;;;;;1.63;1.52;;;;;;;9.43;78.69;97796.22;5028783;28;20190;-56
2024/01/05 01:17:22;;;;;;;2.38;1.60;;;;;;;9.54;80.32;97827.22;5028554;28;20719;-57
2024/01/05 01:19:48;;;;;;;1.90;1.50;;;;;;;9.09;80.99;97771.22;5028410;28;20716;-57
2024/01/05 01:22:13;;;;;;;2.15;1.48;;;;;;;9.30;81.00;97831.59;5046060;28;20669;-57
2024/01/05 01:24:39;;;;;;;1.70;1.13;;;;;;;9.13;78.99;97788.13;5048245;28;20186;-57
2024/01/05 01:27:04;;;;;;;1.88;0.90;;;;;;;9.09;74.42;97757.50;5048225;28;20206;-57
2024/01/05 01:29:30;;;;;;;1.50;0.82;;;;;;;9.58;74.37;97847.53;5048260;28;20657;-57
2024/01/05 01:31:55;;;;;;;0.95;0.80;;;;;;;9.44;73.81;97818.50;5048289;28;20671;-57
2024/01/05 01:34:20;;;;;;;0.73;0.73;;;;;;;9.52;74.44;97816.22;5048275;28;20174;-57
2024/01/05 01:36:46;;;;;;;2.90;0.80;;;;;;;9.17;75.31;97763.75;5042805;28;20193;-57
2024/01/05 01:39:11;;;;;;;0.93;0.93;;;;;;;9.66;76.00;97856.53;5051880;28;20636;-57
2024/01/05 01:41:37;;;;;;;0.80;0.80;;;;;;;9.35;77.06;97801.13;5051779;28;20181;-57
2024/01/05 01:44:03;;;;;;;0.80;0.77;;;;;;;9.13;76.94;97764.91;5031717;28;20779;-57
2024/01/05 01:46:31;;;;;;;0.75;0.73;;;;;;;9.57;77.33;97849.44;5031644;28;20226;-57
2024/01/05 01:48:57;;;;;;;1.58;0.80;;;;;;;9.54;77.94;97829.81;5031736;28;20216;-57
2024/01/05 01:51:23;;;;;;;2.22;1.00;;;;;;;9.17;76.49;97773.25;5031753;28;20397;-57
2024/01/05 01:53:49;;;;;;;1.52;1.05;;;;;;;9.06;77.33;97766.28;5031753;28;20712;-57
2024/01/05 01:56:14;;;;;;;1.98;1.08;;;;;;;9.16;77.79;97777.59;5031937;28;20619;-57
2024/01/05 01:58:42;;;;;;;1.08;1.08;;;;;;;9.08;79.35;97774.72;5031603;28;20191;-57
2024/01/05 02:01:08;;;;;;;0.70;0.60;;;;;;;9.28;79.22;97801.69;5031550;28;20218;-57
2024/01/05 02:03:34;;;;;;;0.95;0.95;;;;;;;9.40;80.39;97822.28;5030463;28;20210;-57
2024/01/05 02:06:00;;;;;;;2.28;1.20;;;;;;;9.18;80.67;97786.03;5030698;28;20653;-57
2024/01/05 02:08:26;;;;;;;0.65;0.65;;;;;;;9.25;80.63;97800.13;5031372;28;20221;-57
2024/01/05 02:10:52;;;;;;;3.60;1.65;;;;;;;9.55;79.41;97854.69;5031395;28;20229;-57
2024/01/05 02:13:18;;;;;;;1.48;0.80;;;;;;;9.49;78.25;97831.91;5031364;28;20178;-57
2024/01/05 02:15:43;;;;;;;0.88;0.85;;;;;;;9.68;73.84;97842.53;5032918;28;20585;-57
2024/01/05 02:18:12;;;;;;;0.80;0.80;;;;;;;9.58;72.75;97823.50;5033448;28;20609;-57
2024/01/05 02:20:37;;;;;;;1.00;0.73;;;;;;;9.47;73.82;97801.97;5033535;28;20201;-57
2024/01/05 02:23:07;;;;;;;1.55;0.95;;;;;;;9.63;72.02;97824.00;5033627;28;20486;-57
2024/01/05 02:25:33;;;;;;;1.00;1.00;;;;;;;9.78;72.31;97838.34;5033142;28;20636;-57
2024/01/05 02:27:58;;;;;;;0.90;0.90;;;;;;;9.70;70.65;97815.66;5033440;28;20205;-57
2024/01/05 02:30:24;;;;;;;0.82;0.70;;;;;;;9.58;69.02;97766.69;5033489;28;20174;-57
2024/01/05 02:32:49;;;;;;;0.80;0.80;;;;;;;10.21;69.14;97871.22;5032630;28;20185;-57
2024/01/05 02:35:14;;;;;;;0.82;0.82;;;;;;;10.15;68.76;97860.53;5033361;28;20174;-57
2024/01/05 02:37:43;;;;;;;0.88;0.88;;;;;;;10.21;68.01;97860.06;5033259;28;20177;-57
2024/01/05 02:40:10;;;;;;;1.55;1.10;;;;;;;10.12;68.43;97837.50;5033234;28;20189;-57
2024/01/05 02:42:36;;;;;;;1.10;1.00;;;;;;;9.86;69.82;97836.03;5033299;28;20265;-57
2024/01/05 02:45:02;;;;;;;1.13;1.08;;;;;;;9.51;70.62;97787.91;5033237;28;20609;-57
2024/01/05 02:47:27;;;;;;;1.00;1.00;;;;;;;9.94;70.54;97890.53;5032865;28;20198;-57
2024/01/05 02:49:52;;;;;;;1.27;1.17;;;;;;;9.82;71.25;97881.91;5033372;28;20257;-57
2024/01/05 02:52:18;;;;;;;1.10;1.00;;;;;;;9.67;71.72;97881.41;5033027;28;20253;-57
2024/01/05 02:54:46;;;;;;;1.05;0.95;;;;;;;9.20;72.12;97833.19;5032544;28;20201;-57
2024/01/05 02:57:11;;;;;;;1.27;0.98;;;;;;;9.41;72.89;97869.53;5032935;28;20174;-57
2024/01/05 02:59:37;;;;;;;0.80;0.80;;;;;;;9.53;73.14;97890.97;5032917;28;20609;-57
2024/01/05 03:02:02;;;;;;;1.30;0.93;;;;;;;9.17;70.81;97833.44;5032824;28;20206;-57
2024/01/05 03:04:28;;;;;;;1.85;1.02;;;;;;;9.20;72.05;97851.28;5032773;28;20174;-57
2024/01/05 03:06:53;;;;;;;1.00;1.00;;;;;;;9.12;72.09;97861.31;5032656;28;20202;-57
2024/01/05 03:09:18;;;;;;;1.58;0.98;;;;;;;9.08;73.59;97869.41;5032705;28;20179;-57
2024/01/05 03:11:44;;;;;;;1.65;1.10;;;;;;;8.66;74.37;97824.22;5032418;28;20166;-57
2024/01/05 03:14:09;;;;;;;1.05;1.05;;;;;;;8.74;74.60;97863.19;5032671;28;20373;-57
2024/01/05 03:16:34;;;;;;;0.93;0.93;;;;;;;8.82;74.98;97881.56;5032603;28;20178;-57
2024/01/05 03:19:00;;;;;;;1.10;1.00;;;;;;;9.06;74.77;97922.84;5032569;28;20605;-57
2024/01/05 03:21:26;;;;;;;2.65;0.93;;;;;;;8.43;74.74;97835.31;5032572;28;20206;-57
2024/01/05 03:23:51;;;;;;;2.72;1.05;;;;;;;8.45;74.44;97845.53;5032318;28;20237;-57
2024/01/05 03:26:17;;;;;;;1.10;1.00;;;;;;;9.01;75.20;97936.09;5031958;28;20641;-57
2024/01/05 03:28:42;;;;;;;1.92;1.30;;;;;;;8.63;75.35;97877.78;5032367;28;20641;-57
2024/01/05 03:31:12;;;;;;;1.10;0.98;;;;;;;8.65;73.63;97883.63;5032018;28;20647;-57
2024/01/05 03:33:41;;;;;;;0.70;0.70;;;;;;;8.85;72.23;97922.59;5032230;28;20182;-56
2024/01/05 03:36:08;;;;;;;2.83;1.25;;;;;;;8.78;73.15;97921.38;5032205;28;20182;-56
2024/01/05 03:38:33;;;;;;;0.95;0.95;;;;;;;8.68;73.83;97916.97;5032048;28;20631;-56
2024/01/05 03:40:58;;;;;;;2.60;1.02;;;;;;;8.89;73.94;97942.09;5049339;28;20268;-56
2024/01/05 03:43:24;;;;;;;2.65;1.15;;;;;;;8.63;74.36;97927.56;5029474;28;20187;-56
2024/01/05 03:45:50;;;;;;;1.02;1.02;;;;;;;8.78;74.71;97962.66;5029504;28;20213;-57
2024/01/05 03:48:15;;;;;;;4.05;2.83;;;;;;;8.15;74.69;97874.16;5029585;28;20222;-56
2024/01/05 03:50:41;;;;;;;1.85;1.10;;;;;;;8.43;72.91;97888.63;5029500;28;20178;-57
2024/01/05 03:53:06;;;;;;;1.25;1.25;;;;;;;8.80;72.38;97954.81;5029486;28;20222;-57
2024/01/05 03:55:31;;;;;;;1.00;1.00;;;;;;;8.90;71.84;97948.06;5029462;28;20269;-57
2024/01/05 03:57:57;;;;;;;0.88;0.88;;;;;;;8.92;71.58;97972.84;5029308;28;20198;-57
2024/01/05 04:00:22;;;;;;;1.10;1.00;;;;;;;8.88;72.19;97968.84;5028908;28;20661;-57
2024/01/05 04:02:48;;;;;;;1.38;0.85;;;;;;;8.67;72.21;97931.59;5029353;28;20248;-57
2024/01/05 04:05:14;;;;;;;1.20;1.20;;;;;;;9.09;72.33;98020.72;5029292;28;20214;-57
2024/01/05 04:07:39;;;;;;;1.38;0.80;;;;;;;8.73;72.55;97989.69;5029193;28;20249;-57
2024/01/05 04:10:07;;;;;;;1.83;0.90;;;;;;;8.92;72.38;98037.34;5029128;28;20280;-57
2024/01/05 04:12:33;;;;;;;0.90;0.90;;;;;;;8.54;73.00;97989.25;5029157;28;20731;-57
2024/01/05 04:14:58;;;;;;;1.00;0.90;;;;;;;8.71;72.47;98013.00;5044010;28;20749;-57
2024/01/05 04:17:24;;;;;;;0.90;0.90;;;;;;;8.33;72.24;97955.44;5047469;28;20185;-57
2024/01/05 04:19:49;;;;;;;0.85;0.80;;;;;;;8.30;72.23;97965.97;5031535;28;20174;-57
2024/01/05 04:22:15;;;;;;;0.75;0.75;;;;;;;8.87;72.09;98075.53;5031728;28;20374;-57
2024/01/05 04:24:40;;;;;;;0.93;0.77;;;;;;;8.78;72.65;98063.25;5030958;28;20189;-57
2024/01/05 04:27:06;;;;;;;1.10;1.10;;;;;;;8.78;72.44;98055.50;5031329;28;20217;-57
2024/01/05 04:29:31;;;;;;;0.73;0.73;;;;;;;8.78;72.10;98075.31;5031442;28;20691;-57
2024/01/05 04:31:57;;;;;;;1.35;1.00;;;;;;;8.50;71.34;98017.00;5031420;28;20177;-57
2024/01/05 04:34:22;;;;;;;0.98;0.98;;;;;;;8.73;71.60;98057.56;5031488;28;20177;-57
2024/01/05 04:36:47;;;;;;;0.80;0.80;;;;;;;8.57;72.14;98038.88;5031254;28;20573;-57
2024/01/05 04:39:13;;;;;;;1.00;1.00;;;;;;;8.64;71.89;98054.78;5031390;28;20265;-57
2024/01/05 04:41:38;;;;;;;1.65;0.90;;;;;;;8.27;71.38;98002.22;5031117;28;20175;-57
2024/01/05 04:44:04;;;;;;;0.90;0.90;;;;;;;8.84;71.82;98087.78;5031309;28;20170;-57
2024/01/05 04:46:29;;;;;;;1.75;1.08;;;;;;;8.34;72.96;98024.09;5031170;28;20627;-57
2024/01/05 04:48:55;;;;;;;0.90;0.90;;;;;;;8.33;73.88;98062.88;5030937;28;20179;-57
2024/01/05 04:51:21;;;;;;;1.80;1.40;;;;;;;8.36;73.89;98099.59;5031154;28;20217;-57
2024/01/05 04:53:48;;;;;;;1.10;1.10;;;;;;;8.01;74.28;98036.56;5031214;28;20189;-57
2024/01/05 04:56:14;;;;;;;1.00;1.00;;;;;;;8.09;74.01;98067.81;5031244;28;20185;-57
2024/01/05 04:58:40;;;;;;;1.10;1.10;;;;;;;8.06;74.44;98065.44;5031203;28;20265;-57
2024/01/05 05:01:05;;;;;;;1.73;1.10;;;;;;;8.30;73.29;98091.41;5031136;28;20179;-57
2024/01/05 05:03:31;;;;;;;0.73;0.73;;;;;;;8.31;72.29;98069.88;5031041;28;20257;-57
2024/01/05 05:05:57;;;;;;;1.20;1.13;;;;;;;8.20;71.67;98025.91;5031131;28;20232;-57
2024/01/05 05:08:22;;;;;;;0.90;0.90;;;;;;;8.44;69.80;98053.50;5030996;28;20676;-57
2024/01/05 05:10:48;;;;;;;1.38;0.70;;;;;;;8.58;68.72;98063.75;5031598;28;20179;-57
2024/01/05 05:13:13;;;;;;;0.80;0.80;;;;;;;8.94;68.08;98112.91;5034948;28;20197;-58
2024/01/05 05:15:39;;;;;;;0.98;0.98;;;;;;;9.04;67.30;98124.22;5034563;28;20183;-58
2024/01/05 05:18:04;;;;;;;0.98;0.90;;;;;;;8.55;66.82;98043.31;5034815;28;20167;-57
2024/01/05 05:20:30;;;;;;;2.00;1.27;;;;;;;8.87;66.19;98060.06;5034569;28;20233;-57
2024/01/05 05:22:55;;;;;;;1.08;1.08;;;;;;;8.68;66.54;98035.59;5034651;28;20174;-57
2024/01/05 05:25:21;;;;;;;0.98;0.98;;;;;;;9.01;66.41;98106.38;5034724;28;20188;-57
2024/01/05 05:27:47;;;;;;;0.90;0.90;;;;;;;8.85;66.06;98077.38;5034392;28;20636;-57
2024/01/05 05:30:13;;;;;;;1.20;1.08;;;;;;;9.20;65.81;98118.91;5034580;28;20181;-57
2024/01/05 05:32:38;;;;;;;1.13;1.13;;;;;;;8.82;64.79;98056.97;5034285;28;20218;-57
2024/01/05 05:35:05;;;;;;;1.67;1.42;;;;;;;8.94;64.34;98070.78;5034557;28;20182;-57
2024/01/05 05:37:30;;;;;;;1.20;1.20;;;;;;;9.26;64.21;98126.22;5034470;28;20182;-57
2024/01/05 05:39:55;;;;;;;1.50;1.33;;;;;;;9.11;63.63;98097.09;5034469;28;20559;-57
2024/01/05 05:42:21;;;;;;;0.70;0.70;;;;;;;9.43;63.57;98146.56;5034453;28;20217;-57
2024/01/05 05:44:46;;;;;;;1.00;1.00;;;;;;;9.28;62.54;98111.44;5034445;28;20182;-57
2024/01/05 05:47:12;;;;;;;0.80;0.80;;;;;;;9.02;63.40;98066.75;5034188;28;20676;-57
2024/01/05 05:49:37;;;;;;;0.80;0.80;;;;;;;9.00;63.26;98073.78;5034227;28;20182;-57
2024/01/05 05:52:06;;;;;;;2.75;2.20;;;;;;;9.41;63.38;98138.91;5034195;28;20252;-57
2024/01/05 05:54:32;;;;;;;0.98;0.98;;;;;;;9.47;63.38;98155.72;5034189;28;20588;-57
2024/01/05 05:56:57;;;;;;;1.17;0.90;;;;;;;9.09;63.18;98086.03;5034146;28;20205;-57
2024/01/05 05:59:23;;;;;;;0.63;0.63;;;;;;;9.12;62.88;98083.28;5033849;28;20181;-57
2024/01/05 06:01:48;;;;;;;1.38;0.80;;;;;;;9.15;62.88;98083.03;5050775;28;20177;-57
2024/01/05 06:04:14;;;;;;;1.13;0.70;;;;;;;9.38;62.94;98133.94;5050986;28;20343;-57
2024/01/05 06:06:39;;;;;;;1.42;1.33;;;;;;;9.20;63.67;98124.84;5051379;28;20275;-57
2024/01/05 06:09:05;;;;;;;0.80;0.70;;;;;;;9.52;63.39;98170.81;5051303;28;20193;-57
2024/01/05 06:11:31;;;;;;;0.95;0.65;;;;;;;9.27;63.28;98153.69;5051269;28;20293;-57
2024/01/05 06:13:57;;;;;;;0.80;0.80;;;;;;;9.49;63.17;98193.44;5051340;28;20186;-57
2024/01/05 06:16:22;;;;;;;0.90;0.90;;;;;;;9.43;63.29;98199.00;5051570;28;20182;-57
2024/01/05 06:18:48;;;;;;;0.77;0.77;;;;;;;8.94;64.79;98151.59;5051186;28;20277;-56
2024/01/05 06:21:13;;;;;;;2.05;1.00;;;;;;;9.18;64.51;98203.31;5050706;28;20272;-57
2024/01/05 06:23:39;;;;;;;0.80;0.80;;;;;;;8.70;65.03;98148.06;5050716;28;20268;-57
2024/01/05 06:26:04;;;;;;;2.83;0.80;;;;;;;8.35;66.08;98125.44;5050966;28;20273;-57
2024/01/05 06:28:30;;;;;;;0.80;0.80;;;;;;;8.77;66.86;98216.34;5050755;28;20217;-56
2024/01/05 06:30:56;;;;;;;0.65;0.65;;;;;;;8.68;67.16;98223.88;5050980;28;20277;-57
2024/01/05 06:33:21;;;;;;;0.85;0.85;;;;;;;8.44;67.71;98204.78;5037804;28;20661;-57
2024/01/05 06:35:47;;;;;;;0.93;0.93;;;;;;;8.14;67.26;98148.22;5033287;28;20672;-57
2024/01/05 06:38:12;;;;;;;3.35;1.00;;;;;;;8.11;67.73;98156.13;5033367;28;20201;-56
2024/01/05 06:40:38;;;;;;;0.70;0.70;;;;;;;7.89;68.28;98137.81;5041677;28;20243;-57
2024/01/05 06:43:03;;;;;;;0.85;0.85;;;;;;;8.19;68.46;98173.69;5035734;28;20182;-57
2024/01/05 06:45:29;;;;;;;0.90;0.90;;;;;;;8.57;68.27;98229.69;5032985;28;20711;-57
2024/01/05 06:47:54;;;;;;;0.70;0.70;;;;;;;8.61;68.25;98233.72;5032603;28;20305;-57
2024/01/05 06:50:19;;;;;;;2.58;1.05;;;;;;;8.33;67.93;98177.09;5032886;28;20273;-57
2024/01/05 06:52:45;;;;;;;1.40;1.13;;;;;;;8.42;67.45;98186.00;5032853;28;20261;-57
2024/01/05 06:55:11;;;;;;;2.17;0.98;;;;;;;8.81;67.25;98248.78;5032409;28;20207;-57
2024/01/05 06:57:36;;;;;;;1.35;1.25;;;;;;;8.55;67.38;98192.88;5032752;28;20179;-57
2024/01/05 07:00:06;;;;;;;1.65;1.48;;;;;;;8.88;67.71;98246.63;5032420;28;20661;-58
2024/01/05 07:02:31;;;;;;;1.73;1.40;;;;;;;8.97;67.24;98259.75;5032635;28;20645;-58
2024/01/05 07:04:57;;;;;;;1.50;1.40;;;;;;;8.32;67.94;98151.44;5032613;28;20174;-58
2024/01/05 07:07:22;;;;;;;1.42;1.30;;;;;;;8.67;67.50;98220.44;5032426;28;20583;-58
2024/01/05 07:09:48;;;;;;;2.03;0.80;;;;;;;8.38;67.27;98182.78;5032458;28;20183;-58
2024/01/05 07:12:14;;;;;;;0.90;0.90;;;;;;;8.25;67.20;98179.34;5032517;28;20605;-58
2024/01/05 07:14:39;;;;;;;1.70;1.60;;;;;;;8.48;67.50;98213.97;5032356;28;20270;-58
2024/01/05 07:17:04;;;;;;;2.35;1.50;;;;;;;8.85;67.83;98276.00;5032110;28;20178;-58
2024/01/05 07:19:30;;;;;;;1.33;1.33;;;;;;;8.80;67.38;98277.25;5032175;28;20178;-58
2024/01/05 07:21:55;;;;;;;0.88;0.88;;;;;;;8.28;66.91;98171.41;5032406;28;20222;-58
2024/01/05 07:24:20;;;;;;;1.30;1.20;;;;;;;8.56;67.13;98224.66;5032230;28;20507;-58
2024/01/05 07:26:46;;;;;;;1.23;0.90;;;;;;;8.41;66.36;98179.19;5032070;28;20201;-58
2024/01/05 07:29:13;;;;;;;0.95;0.90;;;;;;;8.95;66.74;98269.34;5032073;28;20660;-58
2024/01/05 07:31:38;;;;;;;1.10;1.05;;;;;;;9.05;66.36;98282.47;5031857;28;20634;-58
2024/01/05 07:34:04;;;;;;;0.82;0.82;;;;;;;8.72;66.25;98223.56;5030944;28;20262;-58
2024/01/05 07:36:29;;;;;;;1.40;1.33;;;;;;;8.88;66.57;98237.13;5031953;28;20182;-58
2024/01/05 07:38:59;;;;;;;1.25;1.10;;;;;;;9.01;66.61;98245.72;5032016;28;20166;-58
2024/01/05 07:41:25;;;;;;;9.15;2.95;;;;;;;8.65;67.42;98175.03;5031934;28;20567;-58
2024/01/05 07:43:51;;;;;;;1.90;1.63;;;;;;;9.34;66.74;98274.53;5031946;28;20201;-58
2024/01/05 07:46:17;;;;;;;6.90;4.05;;;;;;;9.28;66.47;98264.59;5031816;28;20179;-58
2024/01/05 07:48:42;;;;;;;1.95;1.60;;;;;;;8.89;66.03;98182.03;5031679;28;20267;-58
2024/01/05 07:51:09;;;;;;;4.78;3.00;;;;;;;9.22;66.02;98241.75;5031764;28;20194;-58
2024/01/05 07:53:34;;;;;;;1.58;1.33;;;;;;;9.35;64.77;98237.44;5031684;28;20213;-58
2024/01/05 07:56:02;;;;;;;1.52;1.42;;;;;;;9.31;64.69;98235.97;5031692;28;20209;-58
2024/01/05 07:58:27;;;;;;;1.50;1.40;;;;;;;9.19;64.78;98200.66;5030610;28;20185;-58
2024/01/05 08:00:53;;;;;;;3.03;2.67;;;;;;;9.71;63.97;98271.13;5031809;28;20553;-58
2024/01/05 08:03:19;;;;;;;9.57;5.82;;;;;;;9.41;63.99;98206.03;5031485;28;20634;-58
2024/01/05 08:05:45;;;;;;;5.20;4.00;;;;;;;9.69;63.65;98247.97;5031728;28;20178;-58
2024/01/05 08:08:11;;;;;;;3.00;2.20;;;;;;;9.59;63.48;98233.22;5047891;28;20209;-58
2024/01/05 08:10:36;;;;;;;1.40;1.30;;;;;;;9.47;62.77;98210.78;5049134;28;20573;-58
2024/01/05 08:13:02;;;;;;;1.48;1.35;;;;;;;9.89;60.68;98282.81;5049138;28;20184;-58
2024/01/05 08:15:27;;;;;;;1.88;1.63;;;;;;;10.24;60.92;98307.13;5048985;28;20182;-58
2024/01/05 08:17:54;;;;;;;2.17;1.80;;;;;;;10.04;61.32;98266.31;5048892;28;20189;-58
2024/01/05 08:20:19;;;;;;;1.67;1.05;;;;;;;9.81;60.44;98228.25;5048785;28;20341;-58
2024/01/05 08:22:45;;;;;;;1.13;1.13;;;;;;;10.18;60.61;98289.44;5049014;28;20297;-58
2024/01/05 08:25:13;;;;;;;1.50;1.40;;;;;;;9.92;60.99;98220.59;5048903;28;20659;-58
2024/01/05 08:27:39;;;;;;;1.65;1.55;;;;;;;10.22;60.99;98273.59;5048737;28;20217;-58
2024/01/05 08:30:07;;;;;;;1.50;1.40;;;;;;;10.56;61.16;98321.25;5048765;28;20730;-58
2024/01/05 08:32:33;;;;;;;1.42;1.30;;;;;;;10.57;60.21;98317.72;5046270;28;20576;-57
2024/01/05 08:34:59;;;;;;;1.35;1.30;;;;;;;10.17;60.42;98223.97;5048733;28;20204;-58
2024/01/05 08:37:24;;;;;;;1.27;1.17;;;;;;;10.52;60.32;98281.00;5048807;28;20205;-58
2024/01/05 08:39:50;;;;;;;1.65;1.40;;;;;;;10.51;59.85;98262.03;5035038;28;20650;-57
2024/01/05 08:42:15;;;;;;;1.25;1.17;;;;;;;10.48;59.76;98243.34;5031332;28;20220;-58
2024/01/05 08:44:41;;;;;;;1.60;1.10;;;;;;;10.87;59.64;98300.03;5031536;28;20185;-58
2024/01/05 08:47:06;;;;;;;1.20;1.10;;;;;;;10.64;59.15;98249.06;5035556;28;20309;-58
2024/01/05 08:49:33;;;;;;;3.40;1.27;;;;;;;10.85;58.93;98268.25;5035331;28;20236;-58
2024/01/05 08:51:59;;;;;;;1.40;1.30;;;;;;;10.33;58.55;98178.00;5035010;28;20258;-58
2024/01/05 08:54:24;;;;;;;1.20;1.20;;;;;;;10.97;58.23;98257.81;5035227;28;20253;-58
2024/01/05 08:56:50;;;;;;;1.25;1.15;;;;;;;11.13;58.08;98283.44;5035201;28;20178;-58
2024/01/05 08:59:15;;;;;;;5.30;1.33;;;;;;;11.09;58.27;98261.31;5035467;28;20179;-58
2024/01/05 09:01:41;;;;;;;1.00;1.00;;;;;;;11.55;57.11;98317.38;5035375;28;20167;-57
2024/01/05 09:04:10;;;;;;;1.80;1.70;;;;;;;11.14;55.60;98234.13;5035088;28;20179;-58
2024/01/05 09:06:38;;;;;;;5.00;3.00;;;;;;;11.13;55.09;98221.28;5034902;28;20174;-58
2024/01/05 09:09:03;;;;;;;1.60;1.50;;;;;;;11.43;54.82;98283.81;5034996;28;20170;-58
2024/01/05 09:11:29;;;;;;;2.42;1.58;;;;;;;11.37;55.01;98255.75;5034941;28;20201;-57
2024/01/05 09:13:54;;;;;;;1.60;1.23;;;;;;;11.65;54.80;98291.63;5052228;28;20243;-58
2024/01/05 09:16:20;;;;;;;2.58;1.40;;;;;;;11.28;54.42;98217.56;5052299;28;20197;-57
2024/01/05 09:18:45;;;;;;;3.03;2.00;;;;;;;11.35;53.58;98227.38;5052323;28;20186;-58
2024/01/05 09:21:12;;;;;;;2.03;1.92;;;;;;;11.90;54.23;98301.84;5052136;28;20202;-58
2024/01/05 09:23:38;;;;;;;2.40;1.60;;;;;;;11.45;53.70;98217.13;5052180;28;20725;-58
2024/01/05 09:26:04;;;;;;;1.33;1.17;;;;;;;11.58;52.79;98252.41;5052152;28;20241;-58
2024/01/05 09:28:29;;;;;;;1.17;1.17;;;;;;;11.88;52.78;98299.34;5052038;28;20213;-58
2024/01/05 09:30:55;;;;;;;1.30;1.20;;;;;;;11.76;52.85;98252.78;5052103;28;20182;-59
2024/01/05 09:33:20;;;;;;;1.17;1.15;;;;;;;11.99;52.48;98264.81;5052152;28;20261;-56
2024/01/05 09:35:46;;;;;;;1.13;1.13;;;;;;;12.27;52.81;98295.50;5051999;28;20221;-57
2024/01/05 09:38:11;;;;;;;1.20;1.20;;;;;;;11.93;52.84;98223.81;5051914;28;20185;-57
2024/01/05 09:40:37;;;;;;;0.95;0.95;;;;;;;12.43;52.10;98290.78;5051952;28;20264;-57
2024/01/05 09:43:04;;;;;;;1.17;1.10;;;;;;;12.22;51.53;98240.53;5051901;28;20185;-57
2024/01/05 09:45:30;;;;;;;1.33;1.10;;;;;;;12.23;50.84;98211.06;5051710;28;20652;-57
2024/01/05 09:48:00;;;;;;;1.42;1.33;;;;;;;12.78;50.46;98283.63;5051787;28;20700;-57
2024/01/05 09:50:25;;;;;;;1.25;1.25;;;;;;;12.58;49.47;98235.06;5049492;28;20583;-57
2024/01/05 09:52:51;;;;;;;1.35;1.27;;;;;;;12.88;49.27;98272.38;5034251;28;20209;-57
2024/01/05 09:55:16;;;;;;;1.10;1.00;;;;;;;12.71;48.41;98233.97;5034132;28;20258;-57
2024/01/05 09:57:42;;;;;;;1.35;1.25;;;;;;;12.73;47.87;98208.69;5033160;28;20175;-57
2024/01/05 10:00:12;;;;;;;12.02;6.57;;;;;;;12.88;49.04;98209.22;5051344;28;20190;-57
2024/01/05 10:02:44;;;;;;;4.82;3.20;;;;;;;13.03;49.48;98223.63;5031359;28;20341;-57
2024/01/05 10:05:11;;;;;;;2.28;1.83;;;;;;;13.20;49.22;98243.84;5031563;28;20257;-57
2024/01/05 10:07:45;;;;;;;3.03;1.90;;;;;;;12.97;49.35;98208.53;5031375;28;20245;-57
2024/01/05 10:10:12;;;;;;;4.25;2.83;;;;;;;12.90;49.29;98171.81;5031357;28;20292;-57
2024/01/05 10:12:39;;;;;;;5.35;2.70;;;;;;;12.96;49.41;98188.72;5031395;28;20196;-57
2024/01/05 10:15:06;;;;;;;3.53;2.00;;;;;;;13.32;49.87;98232.44;5031277;28;20599;-57
2024/01/05 10:17:32;;;;;;;3.20;2.47;;;;;;;12.87;49.21;98140.06;5031226;28;20200;-57
2024/01/05 10:20:15;;;;;;;3.33;1.85;;;;;;;13.21;49.13;98173.59;5036483;28;20186;-57
2024/01/05 10:22:42;;;;;;;7.30;1.98;;;;;;;13.20;49.15;98177.13;5050956;28;20225;-57
2024/01/05 10:25:17;;;;;;;5.78;3.47;;;;;;;13.58;48.63;98212.91;5050962;28;20192;-57
2024/01/05 10:27:44;;;;;;;7.32;4.13;;;;;;;13.57;49.18;98187.88;5034258;28;20273;-57
2024/01/05 10:30:10;;;;;;;3.88;3.35;;;;;;;13.17;48.84;98119.38;5036905;28;20194;-57
2024/01/05 10:32:36;;;;;;;2.80;2.47;;;;;;;13.24;48.75;98113.56;5032223;28;20193;-57
2024/01/05 10:35:03;;;;;;;2.97;2.42;;;;;;;13.55;48.58;98148.19;5050547;28;20606;-57
2024/01/05 10:37:29;;;;;;;2.10;1.90;;;;;;;13.65;48.67;98149.06;5050535;28;20256;-57
2024/01/05 10:39:56;;;;;;;3.20;2.70;;;;;;;13.94;48.81;98181.22;5050489;28;20251;-57
2024/01/05 10:42:24;;;;;;;4.57;2.42;;;;;;;13.81;48.52;98138.97;5050553;28;20192;-56
2024/01/05 10:44:51;;;;;;;5.10;3.53;;;;;;;14.17;48.28;98183.47;5050395;28;20201;-57
2024/01/05 10:47:21;;;;;;;3.47;2.15;;;;;;;14.22;47.87;98170.91;5050354;28;20228;-57
2024/01/05 10:49:52;;;;;;;6.18;2.58;;;;;;;14.42;47.23;98179.59;5050463;28;20193;-57
2024/01/05 10:52:28;;;;;;;2.38;2.10;;;;;;;14.24;47.40;98131.75;5052589;28;20174;-57
2024/01/05 10:54:54;;;;;;;1.83;1.73;;;;;;;14.25;47.01;98113.41;5052476;28;20540;-57
2024/01/05 10:57:21;;;;;;;2.70;2.40;;;;;;;14.33;47.31;98094.50;5052682;28;20189;-57
2024/01/05 10:59:51;;;;;;;1.90;1.35;;;;;;;14.68;46.80;98120.81;5052666;28;20189;-57
2024/01/05 11:02:38;;;;;;;3.38;1.88;;;;;;;14.98;46.32;98159.75;5052590;28;20735;-57
2024/01/05 11:05:09;;;;;;;3.83;2.42;;;;;;;15.07;46.15;98166.72;5052556;28;20691;-57
2024/01/05 11:07:36;;;;;;;2.67;2.00;;;;;;;14.90;46.09;98129.19;5052291;28;20262;-57
2024/01/05 11:10:37;;;;;;;2.63;2.25;;;;;;;15.08;45.62;98163.16;5052243;28;20169;-57
2024/01/05 11:13:26;;;;;;;5.65;3.20;;;;;;;15.06;46.52;98159.88;5029990;28;20193;-57
2024/01/05 11:16:10;;;;;;;3.33;2.30;;;;;;;15.03;46.84;98162.75;5030055;28;20317;-57
2024/01/05 11:18:38;;;;;;;2.72;2.20;;;;;;;15.00;46.84;98165.66;5030035;28;20205;-57
2024/01/05 11:21:22;;;;;;;5.35;3.33;;;;;;;14.66;46.71;98094.09;5029730;28;20301;-57
2024/01/05 11:23:49;;;;;;;3.45;3.15;;;;;;;15.23;45.46;98151.34;5029796;28;20185;-57
2024/01/05 11:26:39;;;;;;;4.90;3.15;;;;;;;14.93;45.26;98083.81;5029819;28;20531;-57
2024/01/05 11:29:04;;;;;;;4.25;2.83;;;;;;;15.38;44.82;98152.56;5029781;28;20293;-57
2024/01/05 11:31:44;;;;;;;5.63;2.90;;;;;;;15.47;44.67;98156.97;5029677;28;20198;-57
2024/01/05 11:34:34;;;;;;;3.88;2.60;;;;;;;15.31;46.08;98141.03;5029592;28;20233;-57
2024/01/05 11:37:09;;;;;;;2.63;2.30;;;;;;;15.41;47.33;98157.53;5029588;28;20186;-57